createdAt,value
2018-07-08T00:00:01.115Z,20.94
2018-07-08T00:02:30.236Z,20.85
2018-07-08T00:04:59.336Z,20.50
2018-07-08T00:07:28.448Z,20.50
2018-07-08T00:09:57.549Z,20.52
2018-07-08T00:12:26.663Z,20.49
2018-07-08T00:14:55.773Z,20.45
2018-07-08T00:17:24.895Z,20.41
2018-07-08T00:19:53.977Z,20.33
2018-07-08T00:22:23.105Z,20.45
2018-07-08T00:24:52.217Z,20.47
2018-07-08T00:27:21.296Z,20.37
2018-07-08T00:29:50.397Z,20.28
2018-07-08T00:32:19.510Z,20.19
2018-07-08T00:34:48.641Z,19.98
2018-07-08T00:37:17.749Z,20.17
2018-07-08T00:39:46.850Z,19.92
2018-07-08T00:42:15.951Z,20.00
2018-07-08T00:44:45.085Z,20.18
2018-07-08T00:47:14.185Z,20.14
2018-07-08T00:49:43.280Z,20.36
2018-07-08T00:52:12.476Z,20.26
2018-07-08T00:54:41.585Z,20.15
2018-07-08T00:57:10.701Z,20.10
2018-07-08T00:59:39.785Z,19.99
2018-07-08T01:02:08.885Z,19.94
2018-07-08T01:04:38.001Z,19.73
2018-07-08T01:07:07.156Z,19.73
2018-07-08T01:09:36.266Z,19.72
2018-07-08T01:12:05.357Z,19.58
2018-07-08T01:14:34.485Z,19.45
2018-07-08T01:17:03.614Z,19.30
2018-07-08T01:19:33.029Z,19.68
2018-07-08T01:22:02.149Z,19.60
2018-07-08T01:24:31.265Z,19.60
2018-07-08T01:27:00.377Z,19.79
2018-07-08T01:29:29.482Z,19.77
2018-07-08T01:31:58.709Z,19.91
2018-07-08T01:34:27.808Z,19.57
2018-07-08T01:36:57.152Z,19.70
2018-07-08T01:39:26.272Z,19.67
2018-07-08T01:41:55.372Z,19.64
2018-07-08T01:44:24.558Z,19.36
2018-07-08T01:46:53.555Z,19.44
2018-07-08T01:49:22.674Z,19.05
2018-07-08T01:51:51.778Z,19.04
2018-07-08T01:54:20.921Z,19.21
2018-07-08T01:56:50.069Z,19.16
2018-07-08T01:59:19.184Z,19.18
2018-07-08T02:01:48.337Z,19.29
2018-07-08T02:04:17.445Z,19.15
2018-07-08T02:06:46.556Z,19.04
2018-07-08T02:09:16.021Z,19.14
2018-07-08T02:11:45.197Z,18.87
2018-07-08T02:14:14.317Z,18.93
2018-07-08T02:16:43.421Z,18.83
2018-07-08T02:19:12.553Z,18.99
2018-07-08T02:21:41.743Z,18.87
2018-07-08T02:24:10.872Z,18.84
2018-07-08T02:26:40.137Z,18.99
2018-07-08T02:29:09.233Z,18.92
2018-07-08T02:31:38.373Z,18.82
2018-07-08T02:34:07.521Z,18.86
2018-07-08T02:36:36.659Z,18.88
2018-07-08T02:39:06.881Z,18.77
2018-07-08T02:41:36.034Z,18.59
2018-07-08T02:44:05.669Z,18.61
2018-07-08T02:46:34.841Z,18.49
2018-07-08T02:49:03.977Z,18.62
2018-07-08T02:51:33.086Z,18.61
2018-07-08T02:54:02.173Z,18.31
2018-07-08T02:56:31.248Z,18.38
2018-07-08T02:59:00.368Z,18.41
2018-07-08T03:01:29.462Z,18.24
2018-07-08T03:03:58.553Z,18.18
2018-07-08T03:06:27.621Z,18.13
2018-07-08T03:08:56.728Z,18.16
2018-07-08T03:11:25.813Z,17.78
2018-07-08T03:13:54.925Z,17.60
2018-07-08T03:16:24.018Z,17.85
2018-07-08T03:18:53.106Z,17.77
2018-07-08T03:21:22.176Z,17.88
2018-07-08T03:23:51.289Z,17.88
2018-07-08T03:26:20.384Z,18.03
2018-07-08T03:28:49.469Z,17.98
2018-07-08T03:31:18.605Z,17.85
2018-07-08T03:33:47.705Z,17.90
2018-07-08T03:36:16.907Z,17.81
2018-07-08T03:38:46.253Z,17.69
2018-07-08T03:41:15.355Z,17.61
2018-07-08T03:43:44.445Z,17.69
2018-07-08T03:46:13.553Z,17.84
2018-07-08T03:48:42.753Z,17.74
2018-07-08T03:51:11.880Z,17.67
2018-07-08T03:53:40.963Z,17.88
2018-07-08T03:56:10.078Z,17.74
2018-07-08T03:58:39.181Z,17.79
2018-07-08T04:01:08.272Z,17.83
2018-07-08T04:03:37.386Z,17.74
2018-07-08T04:06:06.613Z,17.66
2018-07-08T04:08:35.697Z,17.37
2018-07-08T04:11:04.821Z,17.38
2018-07-08T04:13:33.905Z,17.55
2018-07-08T04:16:02.997Z,17.70
2018-07-08T04:18:32.078Z,17.63
2018-07-08T04:21:01.161Z,17.68
2018-07-08T04:23:30.261Z,17.77
2018-07-08T04:25:59.373Z,17.76
2018-07-08T04:28:28.459Z,17.67
2018-07-08T04:30:57.573Z,17.66
2018-07-08T04:33:26.652Z,17.61
2018-07-08T04:35:55.781Z,17.52
2018-07-08T04:38:24.864Z,17.53
2018-07-08T04:40:53.974Z,17.45
2018-07-08T04:43:23.063Z,17.50
2018-07-08T04:45:52.157Z,17.56
2018-07-08T04:48:21.275Z,17.48
2018-07-08T04:50:50.357Z,17.61
2018-07-08T04:53:19.445Z,17.51
2018-07-08T04:55:48.537Z,17.60
2018-07-08T04:58:17.672Z,17.53
2018-07-08T05:00:46.752Z,17.53
2018-07-08T05:03:15.829Z,17.45
2018-07-08T05:05:44.952Z,17.43
2018-07-08T05:08:14.246Z,17.30
2018-07-08T05:10:43.442Z,17.36
2018-07-08T05:13:12.893Z,17.52
2018-07-08T05:15:42.068Z,17.42
2018-07-08T05:18:11.154Z,17.45
2018-07-08T05:20:40.217Z,17.53
2018-07-08T05:23:09.345Z,17.50
2018-07-08T05:25:38.429Z,17.43
2018-07-08T05:28:07.545Z,17.52
2018-07-08T05:30:36.637Z,17.66
2018-07-08T05:33:05.869Z,17.45
2018-07-08T05:35:35.068Z,17.51
2018-07-08T05:38:04.145Z,17.40
2018-07-08T05:40:33.237Z,17.48
2018-07-08T05:43:02.334Z,17.48
2018-07-08T05:45:31.485Z,17.30
2018-07-08T05:48:02.605Z,17.66
2018-07-08T05:50:31.740Z,17.52
2018-07-08T05:53:00.827Z,17.45
2018-07-08T05:55:29.963Z,17.50
2018-07-08T05:57:59.125Z,17.62
2018-07-08T06:00:29.270Z,17.70
2018-07-08T06:02:58.354Z,17.67
2018-07-08T06:05:27.461Z,17.70
2018-07-08T06:07:56.709Z,17.74
2018-07-08T06:10:25.830Z,17.89
2018-07-08T06:12:54.941Z,17.91
2018-07-08T06:15:24.073Z,17.94
2018-07-08T06:17:53.177Z,17.74
2018-07-08T06:20:22.277Z,17.65
2018-07-08T06:22:51.525Z,17.78
2018-07-08T06:25:20.645Z,17.87
2018-07-08T06:27:49.733Z,17.89
2018-07-08T06:30:18.837Z,17.85
2018-07-08T06:32:47.928Z,17.87
2018-07-08T06:35:17.029Z,18.06
2018-07-08T06:37:46.118Z,18.16
2018-07-08T06:40:15.225Z,18.12
2018-07-08T06:42:44.333Z,18.20
2018-07-08T06:45:13.445Z,18.38
2018-07-08T06:47:42.655Z,18.60
2018-07-08T06:50:11.761Z,18.56
2018-07-08T06:52:40.887Z,18.52
2018-07-08T06:55:10.006Z,18.64
2018-07-08T06:57:39.141Z,18.99
2018-07-08T07:00:08.415Z,18.99
2018-07-08T07:02:37.512Z,18.76
2018-07-08T07:05:06.653Z,19.18
2018-07-08T07:07:36.767Z,18.98
2018-07-08T07:10:06.373Z,19.31
2018-07-08T07:12:35.468Z,19.26
2018-07-08T07:15:06.633Z,19.32
2018-07-08T07:17:35.726Z,19.82
2018-07-08T07:20:04.893Z,19.53
2018-07-08T07:22:34.001Z,19.73
2018-07-08T07:25:03.105Z,19.86
2018-07-08T07:27:32.410Z,19.42
2018-07-08T07:30:01.516Z,20.20
2018-07-08T07:32:30.633Z,20.01
2018-07-08T07:34:59.733Z,19.67
2018-07-08T07:37:28.975Z,19.63
2018-07-08T07:39:58.116Z,19.85
2018-07-08T07:42:27.260Z,20.33
2018-07-08T07:44:56.540Z,20.69
2018-07-08T07:47:25.621Z,21.05
2018-07-08T07:49:54.737Z,20.88
2018-07-08T07:52:23.857Z,21.34
2018-07-08T07:54:52.958Z,21.87
2018-07-08T07:57:22.065Z,21.91
2018-07-08T07:59:53.293Z,21.67
2018-07-08T08:02:26.058Z,21.42
2018-07-08T08:04:55.269Z,21.90
2018-07-08T08:07:24.461Z,21.81
2018-07-08T08:09:53.647Z,21.83
2018-07-08T08:12:22.733Z,22.83
2018-07-08T08:14:51.958Z,23.42
2018-07-08T08:17:21.065Z,22.35
2018-07-08T08:19:50.153Z,22.98
2018-07-08T08:22:19.257Z,22.92
2018-07-08T08:24:48.337Z,22.82
2018-07-08T08:27:17.465Z,22.64
2018-07-08T08:29:46.569Z,23.82
2018-07-08T08:32:15.689Z,23.90
2018-07-08T08:34:57.057Z,22.97
2018-07-08T08:37:30.484Z,23.25
2018-07-08T08:39:59.597Z,22.67
2018-07-08T08:42:28.729Z,23.74
2018-07-08T08:44:58.529Z,23.61
2018-07-08T08:47:28.142Z,24.13
2018-07-08T08:49:57.485Z,22.95
2018-07-08T08:52:26.678Z,23.10
2018-07-08T08:54:56.160Z,23.90
2018-07-08T08:57:32.621Z,24.48
2018-07-08T09:00:01.719Z,23.47
2018-07-08T09:02:30.821Z,25.43
2018-07-08T09:04:59.933Z,24.63
2018-07-08T09:07:29.137Z,25.14
2018-07-08T09:09:58.261Z,25.11
2018-07-08T09:12:27.373Z,24.56
2018-07-08T09:14:56.474Z,24.90
2018-07-08T09:17:25.601Z,25.49
2018-07-08T09:19:54.709Z,25.72
2018-07-08T09:22:23.785Z,25.14
2018-07-08T09:24:52.906Z,25.54
2018-07-08T09:27:21.997Z,24.46
2018-07-08T09:29:51.102Z,24.24
2018-07-08T09:32:20.202Z,24.00
2018-07-08T09:34:49.314Z,24.43
2018-07-08T09:37:18.442Z,24.30
2018-07-08T09:39:47.541Z,25.35
2018-07-08T09:42:16.625Z,24.57
2018-07-08T09:44:45.709Z,23.70
2018-07-08T09:47:14.813Z,23.52
2018-07-08T09:49:43.886Z,24.39
2018-07-08T09:52:12.992Z,24.96
2018-07-08T09:54:42.122Z,25.04
2018-07-08T09:57:11.233Z,24.21
2018-07-08T09:59:40.335Z,23.46
2018-07-08T10:02:09.443Z,23.97
2018-07-08T10:04:38.625Z,23.70
2018-07-08T10:07:07.646Z,24.15
2018-07-08T10:09:40.629Z,24.49
2018-07-08T10:12:09.717Z,24.35
2018-07-08T10:14:38.797Z,24.00
2018-07-08T10:17:07.945Z,24.41
2018-07-08T10:19:37.309Z,24.79
2018-07-08T10:22:06.412Z,24.18
2018-07-08T10:24:35.833Z,23.78
2018-07-08T10:28:19.181Z,25.00
2018-07-08T10:30:48.646Z,25.34
2018-07-08T10:33:17.758Z,25.05
2018-07-08T10:35:59.078Z,25.89
2018-07-08T10:38:28.254Z,24.73
2018-07-08T10:40:57.461Z,25.98
2018-07-08T10:43:26.626Z,25.47
2018-07-08T10:45:55.636Z,25.12
2018-07-08T10:48:24.741Z,25.33
2018-07-08T10:50:53.832Z,25.20
2018-07-08T10:53:22.946Z,25.86
2018-07-08T10:55:52.029Z,25.51
2018-07-08T10:58:21.118Z,25.56
2018-07-08T11:00:50.237Z,25.82
2018-07-08T11:03:19.326Z,26.33
2018-07-08T11:05:48.430Z,25.74
2018-07-08T11:08:17.533Z,25.54
2018-07-08T11:10:46.653Z,26.11
2018-07-08T11:13:15.750Z,25.78
2018-07-08T11:15:44.841Z,25.03
2018-07-08T11:18:13.984Z,25.23
2018-07-08T11:20:43.190Z,25.57
2018-07-08T11:23:12.261Z,26.18
2018-07-08T11:25:42.129Z,26.07
2018-07-08T11:28:11.549Z,26.26
2018-07-08T11:30:40.879Z,26.44
2018-07-08T11:33:10.373Z,25.91
2018-07-08T11:35:39.504Z,25.76
2018-07-08T11:38:08.606Z,25.64
2018-07-08T11:40:37.702Z,25.56
2018-07-08T11:43:06.802Z,26.37
2018-07-08T11:45:36.009Z,26.89
2018-07-08T11:48:05.380Z,26.70
2018-07-08T11:50:34.521Z,26.39
2018-07-08T11:53:03.657Z,25.69
2018-07-08T11:55:32.785Z,26.63
2018-07-08T11:58:01.957Z,26.09
2018-07-08T12:00:31.086Z,27.12
2018-07-08T12:03:00.249Z,26.97
2018-07-08T12:05:29.477Z,26.73
2018-07-08T12:07:58.691Z,26.35
2018-07-08T12:10:27.816Z,26.24
2018-07-08T12:12:56.910Z,26.41
2018-07-08T12:15:26.054Z,26.35
2018-07-08T12:17:55.173Z,25.93
2018-07-08T12:20:24.438Z,26.84
2018-07-08T12:22:53.911Z,26.29
2018-07-08T12:25:23.091Z,26.57
2018-07-08T12:27:52.197Z,26.72
2018-07-08T12:30:21.317Z,26.37
2018-07-08T12:32:50.405Z,26.58
2018-07-08T12:35:19.536Z,26.75
2018-07-08T12:37:48.642Z,26.18
2018-07-08T12:40:17.753Z,27.05
2018-07-08T12:42:46.829Z,27.05
2018-07-08T12:45:15.937Z,27.22
2018-07-08T12:47:45.053Z,27.07
2018-07-08T12:50:14.153Z,26.62
2018-07-08T12:52:43.238Z,27.12
2018-07-08T12:55:12.372Z,27.26
2018-07-08T12:57:41.465Z,27.07
2018-07-08T13:00:10.595Z,27.27
2018-07-08T13:02:39.718Z,26.79
2018-07-08T13:05:08.953Z,27.03
2018-07-08T13:07:38.161Z,27.04
2018-07-08T13:10:07.271Z,27.13
2018-07-08T13:12:36.413Z,27.24
2018-07-08T13:15:05.689Z,27.37
2018-07-08T13:17:45.183Z,27.53
2018-07-08T13:20:18.033Z,27.86
2018-07-08T13:22:47.157Z,27.91
2018-07-08T13:25:21.149Z,27.93
2018-07-08T13:27:52.009Z,28.26
2018-07-08T13:30:21.169Z,28.29
2018-07-08T13:32:50.505Z,28.03
2018-07-08T13:35:19.673Z,27.92
2018-07-08T13:37:49.526Z,28.40
2018-07-08T13:40:18.661Z,27.99
2018-07-08T13:42:47.776Z,27.56
2018-07-08T13:45:16.919Z,27.23
2018-07-08T13:47:46.002Z,27.25
2018-07-08T13:50:15.142Z,27.18
2018-07-08T13:52:44.252Z,27.65
2018-07-08T13:55:13.370Z,27.55
2018-07-08T13:57:42.469Z,27.83
2018-07-08T14:00:11.585Z,28.31
2018-07-08T14:02:40.693Z,27.73
2018-07-08T14:05:09.817Z,27.81
2018-07-08T14:07:38.981Z,28.31
2018-07-08T14:10:08.085Z,27.73
2018-07-08T14:12:37.221Z,27.47
2018-07-08T14:15:06.374Z,27.73
2018-07-08T14:17:35.513Z,27.94
2018-07-08T14:20:05.012Z,27.59
2018-07-08T14:22:34.081Z,27.35
2018-07-08T14:25:03.173Z,27.38
2018-07-08T14:27:32.313Z,27.28
2018-07-08T14:30:01.497Z,27.66
2018-07-08T14:32:30.585Z,27.68
2018-07-08T14:34:59.914Z,27.22
2018-07-08T14:37:29.147Z,27.11
2018-07-08T14:39:58.225Z,27.50
2018-07-08T14:42:27.353Z,27.61
2018-07-08T14:44:56.473Z,27.76
2018-07-08T14:47:25.585Z,27.57
2018-07-08T14:49:54.660Z,27.95
2018-07-08T14:52:23.768Z,27.45
2018-07-08T14:54:53.675Z,27.75
2018-07-08T14:57:22.972Z,27.95
2018-07-08T14:59:52.077Z,27.90
2018-07-08T15:02:21.163Z,28.00
2018-07-08T15:04:50.326Z,27.68
2018-07-08T15:07:19.365Z,27.65
2018-07-08T15:09:48.474Z,27.57
2018-07-08T15:12:17.564Z,27.68
2018-07-08T15:14:46.801Z,27.57
2018-07-08T15:17:15.890Z,28.15
2018-07-08T15:19:44.993Z,27.73
2018-07-08T15:22:14.096Z,27.86
2018-07-08T15:24:43.173Z,28.19
2018-07-08T15:27:12.268Z,27.76
2018-07-08T15:29:41.401Z,27.64
2018-07-08T15:32:10.517Z,27.83
2018-07-08T15:34:39.657Z,28.08
2018-07-08T15:37:08.773Z,28.44
2018-07-08T15:39:37.921Z,27.96
2018-07-08T15:42:08.101Z,27.98
2018-07-08T15:44:37.278Z,27.51
2018-07-08T15:47:06.415Z,27.68
2018-07-08T15:49:35.556Z,27.55
2018-07-08T15:52:04.626Z,27.38
2018-07-08T15:54:33.710Z,27.23
2018-07-08T15:57:02.829Z,27.11
2018-07-08T15:59:31.959Z,27.34
2018-07-08T16:02:01.102Z,27.29
2018-07-08T16:04:30.426Z,27.23
2018-07-08T16:06:59.757Z,27.33
2018-07-08T16:09:29.966Z,27.63
2018-07-08T16:11:59.410Z,27.72
2018-07-08T16:14:28.601Z,27.50
2018-07-08T16:16:57.697Z,27.53
2018-07-08T16:19:26.801Z,27.54
2018-07-08T16:21:55.985Z,27.67
2018-07-08T16:24:25.089Z,27.56
2018-07-08T16:26:54.206Z,27.32
2018-07-08T16:29:23.287Z,27.27
2018-07-08T16:31:52.425Z,27.52
2018-07-08T16:34:21.962Z,27.42
2018-07-08T16:36:51.137Z,26.99
2018-07-08T16:39:20.260Z,27.08
2018-07-08T16:41:49.433Z,27.28
2018-07-08T16:44:18.548Z,27.34
2018-07-08T16:46:48.310Z,27.23
2018-07-08T16:49:18.682Z,27.15
2018-07-08T16:51:47.809Z,26.99
2018-07-08T16:54:18.880Z,27.02
2018-07-08T16:56:49.906Z,26.80
2018-07-08T16:59:19.240Z,27.03
2018-07-08T17:01:48.423Z,26.76
2018-07-08T17:04:17.602Z,26.68
2018-07-08T17:06:46.738Z,26.90
2018-07-08T17:09:15.955Z,27.21
2018-07-08T17:11:45.049Z,27.13
2018-07-08T17:14:14.175Z,26.80
2018-07-08T17:16:43.289Z,26.72
2018-07-08T17:19:12.398Z,26.85
2018-07-08T17:21:42.042Z,26.91
2018-07-08T17:24:11.117Z,26.75
2018-07-08T17:26:40.209Z,26.72
2018-07-08T17:29:09.336Z,26.56
2018-07-08T17:31:38.481Z,26.40
2018-07-08T17:34:07.604Z,26.62
2018-07-08T17:36:36.725Z,26.66
2018-07-08T17:39:07.033Z,26.51
2018-07-08T17:41:36.541Z,26.50
2018-07-08T17:44:06.324Z,26.22
2018-07-08T17:46:35.607Z,26.37
2018-07-08T17:49:04.693Z,26.33
2018-07-08T17:51:33.856Z,26.18
2018-07-08T17:54:02.986Z,26.22
2018-07-08T17:56:32.138Z,26.24
2018-07-08T17:59:01.281Z,26.15
2018-07-08T18:01:30.417Z,26.18
2018-07-08T18:03:59.579Z,26.12
2018-07-08T18:06:29.186Z,26.13
2018-07-08T18:08:58.359Z,26.15
2018-07-08T18:11:27.657Z,26.22
2018-07-08T18:13:57.159Z,26.00
2018-07-08T18:16:26.279Z,26.08
2018-07-08T18:18:55.575Z,25.99
2018-07-08T18:21:25.115Z,25.98
2018-07-08T18:23:54.249Z,25.91
2018-07-08T18:26:23.442Z,25.91
2018-07-08T18:28:52.610Z,25.88
2018-07-08T18:31:21.746Z,25.85
2018-07-08T18:33:50.897Z,25.80
2018-07-08T18:36:20.195Z,25.80
2018-07-08T18:38:49.381Z,25.67
2018-07-08T18:41:18.489Z,25.76
2018-07-08T18:43:47.694Z,25.66
2018-07-08T18:46:16.938Z,25.66
2018-07-08T18:48:45.941Z,25.60
2018-07-08T18:51:15.038Z,25.55
2018-07-08T18:53:44.265Z,25.48
2018-07-08T18:56:13.413Z,25.52
2018-07-08T18:58:42.549Z,25.48
2018-07-08T19:01:11.697Z,25.49
2018-07-08T19:03:41.889Z,25.34
2018-07-08T19:06:11.002Z,25.27
2018-07-08T19:08:40.818Z,25.13
2018-07-08T19:11:09.941Z,25.13
2018-07-08T19:13:39.113Z,25.23
2018-07-08T19:16:08.225Z,25.33
2018-07-08T19:18:37.394Z,25.19
2018-07-08T19:21:06.587Z,25.30
2018-07-08T19:23:35.794Z,25.25
2018-07-08T19:26:04.982Z,25.19
2018-07-08T19:28:34.184Z,25.18
2018-07-08T19:31:03.422Z,25.24
2018-07-08T19:33:32.537Z,25.18
2018-07-08T19:36:01.849Z,25.00
2018-07-08T19:38:31.506Z,24.91
2018-07-08T19:41:00.603Z,24.93
2018-07-08T19:43:29.715Z,24.79
2018-07-08T19:45:58.846Z,24.79
2018-07-08T19:48:28.010Z,24.67
2018-07-08T19:50:57.121Z,24.64
2018-07-08T19:53:26.293Z,24.63
2018-07-08T19:55:55.431Z,24.46
2018-07-08T19:58:24.557Z,24.47
2018-07-08T20:00:54.269Z,24.25
2018-07-08T20:03:23.369Z,24.24
2018-07-08T20:05:59.812Z,24.29
2018-07-08T20:08:28.957Z,24.11
2018-07-08T20:10:58.142Z,24.05
2018-07-08T20:13:29.433Z,24.13
2018-07-08T20:15:58.557Z,24.08
2018-07-08T20:18:28.730Z,24.16
2018-07-08T20:20:58.068Z,23.78
2018-07-08T20:23:27.177Z,23.97
2018-07-08T20:25:56.272Z,23.90
2018-07-08T20:28:25.413Z,23.81
2018-07-08T20:30:54.577Z,23.81
2018-07-08T20:33:23.682Z,24.02
2018-07-08T20:35:53.132Z,23.80
2018-07-08T20:38:22.229Z,23.64
2018-07-08T20:40:51.445Z,23.59
2018-07-08T20:43:20.662Z,23.55
2018-07-08T20:45:49.824Z,23.54
2018-07-08T20:48:18.934Z,23.43
2018-07-08T20:50:48.366Z,23.31
2018-07-08T20:53:17.480Z,23.33
2018-07-08T20:55:46.897Z,23.35
2018-07-08T20:58:16.001Z,23.48
2018-07-08T21:00:45.622Z,23.35
2018-07-08T21:03:14.835Z,23.17
2018-07-08T21:05:43.988Z,23.39
2018-07-08T21:08:13.146Z,23.19
2018-07-08T21:10:42.281Z,23.31
2018-07-08T21:13:11.485Z,23.09
2018-07-08T21:15:41.904Z,23.06
2018-07-08T21:18:11.079Z,23.05
2018-07-08T21:20:40.245Z,22.84
2018-07-08T21:23:09.365Z,22.86
2018-07-08T21:25:38.538Z,22.64
2018-07-08T21:28:07.651Z,22.54
2018-07-08T21:30:36.781Z,22.60
2018-07-08T21:33:05.889Z,22.55
2018-07-08T21:35:35.043Z,22.44
2018-07-08T21:38:04.201Z,22.41
2018-07-08T21:40:33.603Z,22.17
2018-07-08T21:43:02.763Z,22.26
2018-07-08T21:45:31.874Z,22.28
2018-07-08T21:48:00.973Z,22.24
2018-07-08T21:50:30.117Z,22.18
2018-07-08T21:52:59.225Z,22.17
2018-07-08T21:55:28.340Z,21.96
2018-07-08T21:57:57.478Z,21.90
2018-07-08T22:00:29.537Z,22.07
2018-07-08T22:02:58.869Z,22.04
2018-07-08T22:05:29.085Z,22.08
2018-07-08T22:08:04.057Z,21.76
2018-07-08T22:10:33.709Z,21.84
2018-07-08T22:13:03.585Z,21.73
2018-07-08T22:15:32.712Z,21.60
2018-07-08T22:18:01.807Z,21.64
2018-07-08T22:20:30.905Z,21.67
2018-07-08T22:23:00.042Z,21.52
2018-07-08T22:25:29.116Z,21.23
2018-07-08T22:27:58.207Z,21.11
2018-07-08T22:30:27.289Z,21.45
2018-07-08T22:32:56.481Z,21.54
2018-07-08T22:35:25.513Z,21.40
2018-07-08T22:37:54.661Z,21.25
2018-07-08T22:40:23.753Z,21.35
2018-07-08T22:42:52.862Z,20.91
2018-07-08T22:45:21.970Z,20.93
2018-07-08T22:47:51.133Z,20.89
2018-07-08T22:50:20.241Z,20.89
2018-07-08T22:52:49.336Z,20.99
2018-07-08T22:55:18.439Z,21.03
2018-07-08T22:57:47.521Z,20.97
2018-07-08T23:00:27.900Z,20.69
2018-07-08T23:03:08.429Z,20.85
2018-07-08T23:05:37.541Z,20.74
2018-07-08T23:08:06.633Z,20.72
2018-07-08T23:10:35.782Z,20.58
2018-07-08T23:13:04.885Z,20.75
2018-07-08T23:15:34.193Z,20.87
2018-07-08T23:18:03.325Z,20.71
2018-07-08T23:20:32.453Z,20.67
2018-07-08T23:23:01.553Z,20.71
2018-07-08T23:25:30.660Z,20.59
2018-07-08T23:27:59.760Z,20.58
2018-07-08T23:30:28.877Z,20.67
2018-07-08T23:32:57.988Z,20.66
2018-07-08T23:35:27.108Z,20.57
2018-07-08T23:37:56.181Z,20.54
2018-07-08T23:40:25.290Z,20.38
2018-07-08T23:42:54.485Z,20.38
2018-07-08T23:45:23.634Z,20.52
2018-07-08T23:47:52.758Z,20.45
2018-07-08T23:50:21.852Z,20.37
2018-07-08T23:52:50.945Z,20.18
2018-07-08T23:55:20.057Z,20.18
2018-07-08T23:57:49.157Z,20.29
